Time;durP1;ratioP1;P1;durP2;ratioP2;P2;SDS_P1;SDS_P2;PMS_P1;PMS_P2;Temp;Humidity;BMP_temperature;BMP_pressure;BME280_temperature;BME280_humidity;BME280_pressure;Samples;Min_cycle;Max_cycle;Signal;HPM_P1;HPM_P2
2022/08/30 00:02:05;;;;;;;0.15;0.15;;;17.50;99.90;;;;;;4999617;28;20125;-69
2022/08/30 00:04:31;;;;;;;0.03;0.03;;;17.50;99.90;;;;;;5006291;28;20153;-69
2022/08/30 00:06:56;;;;;;;0.10;0.10;;;17.50;99.90;;;;;;5010105;28;20049;-69
2022/08/30 00:09:22;;;;;;;0.00;0.00;;;17.50;99.90;;;;;;5004803;28;20069;-69
2022/08/30 00:11:50;;;;;;;0.00;0.00;;;17.50;99.90;;;;;;5004262;28;20042;-69
2022/08/30 00:14:16;;;;;;;0.10;0.10;;;17.50;99.90;;;;;;5007615;28;20057;-69
2022/08/30 00:16:42;;;;;;;0.20;0.20;;;17.40;99.90;;;;;;5010774;28;20042;-69
2022/08/30 00:19:07;;;;;;;0.03;0.03;;;17.40;99.90;;;;;;5006632;28;20042;-69
2022/08/30 00:21:33;;;;;;;0.00;0.00;;;17.40;99.90;;;;;;4991739;28;20046;-69
2022/08/30 00:23:59;;;;;;;0.70;0.30;;;17.50;99.90;;;;;;5005554;28;20050;-69
2022/08/30 00:26:24;;;;;;;0.10;0.10;;;17.50;99.90;;;;;;5006896;28;20046;-69
2022/08/30 00:28:50;;;;;;;0.10;0.10;;;17.40;99.90;;;;;;5007502;28;20050;-69
2022/08/30 00:31:15;;;;;;;3.00;0.32;;;17.40;99.90;;;;;;5009477;28;20078;-69
2022/08/30 00:33:41;;;;;;;0.10;0.10;;;17.50;99.90;;;;;;5005948;28;20572;-69
2022/08/30 00:36:07;;;;;;;0.00;0.00;;;17.50;99.90;;;;;;4992475;28;20401;-69
2022/08/30 00:38:32;;;;;;;0.10;0.10;;;17.40;99.90;;;;;;5004540;28;20446;-69
2022/08/30 00:40:58;;;;;;;0.20;0.20;;;17.40;99.90;;;;;;5001747;28;20137;-69
2022/08/30 00:43:27;;;;;;;0.10;0.10;;;17.40;99.90;;;;;;5000418;28;20520;-69
2022/08/30 00:45:53;;;;;;;0.10;0.10;;;17.40;99.90;;;;;;5009050;28;20501;-69
2022/08/30 00:48:19;;;;;;;0.22;0.22;;;17.40;99.90;;;;;;5009682;28;20080;-69
2022/08/30 00:50:52;;;;;;;0.00;0.00;;;17.50;99.90;;;;;;5006471;28;20070;-69
2022/08/30 00:53:29;;;;;;;0.10;0.10;;;17.50;99.90;;;;;;5002294;28;20107;-69
2022/08/30 00:55:56;;;;;;;0.10;0.10;;;17.40;99.90;;;;;;5008835;28;20034;-69
2022/08/30 00:58:27;;;;;;;0.30;0.30;;;17.40;99.90;;;;;;5000007;28;20077;-69
2022/08/30 01:00:55;;;;;;;0.10;0.10;;;17.40;99.90;;;;;;4998074;28;20069;-69
2022/08/30 01:03:21;;;;;;;0.17;0.17;;;17.40;99.90;;;;;;4998065;28;20050;-69
2022/08/30 01:05:49;;;;;;;0.10;0.10;;;17.40;99.90;;;;;;5008135;28;20045;-69
2022/08/30 01:08:14;;;;;;;0.00;0.00;;;17.40;99.90;;;;;;5007383;28;20057;-69
2022/08/30 01:10:41;;;;;;;0.10;0.10;;;17.40;99.90;;;;;;5003077;28;20034;-69
2022/08/30 01:13:08;;;;;;;0.08;0.08;;;17.40;99.90;;;;;;4996783;28;20046;-69
2022/08/30 01:15:34;;;;;;;0.20;0.20;;;17.40;99.90;;;;;;5010791;28;20061;-69
2022/08/30 01:18:01;;;;;;;0.00;0.00;;;17.40;99.90;;;;;;5007984;28;20454;-69
2022/08/30 01:20:34;;;;;;;0.10;0.10;;;17.30;99.90;;;;;;5002422;28;20053;-69
2022/08/30 01:23:03;;;;;;;0.10;0.10;;;17.30;99.90;;;;;;5003514;28;20046;-69
2022/08/30 01:25:29;;;;;;;0.10;0.10;;;17.30;99.90;;;;;;5007286;28;20143;-69
2022/08/30 01:28:08;;;;;;;0.10;0.10;;;17.40;99.90;;;;;;4994174;28;20081;-69
2022/08/30 01:30:37;;;;;;;0.20;0.20;;;17.30;99.90;;;;;;4991137;28;20050;-69
2022/08/30 01:33:04;;;;;;;0.00;0.00;;;17.30;99.90;;;;;;5003529;28;20068;-69
2022/08/30 01:35:37;;;;;;;0.00;0.00;;;17.30;99.90;;;;;;5009287;28;20060;-68
2022/08/30 01:38:04;;;;;;;0.03;0.03;;;17.20;99.90;;;;;;5006902;28;20458;-68
2022/08/30 01:40:29;;;;;;;0.10;0.10;;;17.20;99.90;;;;;;5009631;28;20049;-69
2022/08/30 01:42:55;;;;;;;0.00;0.00;;;17.30;99.90;;;;;;5008466;28;20045;-69
2022/08/30 01:45:21;;;;;;;0.22;0.22;;;17.30;99.90;;;;;;4997286;28;20057;-69
2022/08/30 01:47:46;;;;;;;0.00;0.00;;;17.20;99.90;;;;;;5005930;28;20485;-69
2022/08/30 01:50:12;;;;;;;0.03;0.03;;;17.20;99.90;;;;;;5003223;28;20042;-69
2022/08/30 01:52:38;;;;;;;0.93;0.85;;;17.20;99.90;;;;;;4994941;28;20076;-68
2022/08/30 01:55:05;;;;;;;0.10;0.10;;;17.20;99.90;;;;;;5008109;28;20046;-69
2022/08/30 01:57:31;;;;;;;0.20;0.20;;;17.10;99.90;;;;;;5003217;28;20047;-69
2022/08/30 01:59:56;;;;;;;0.20;0.20;;;17.10;99.90;;;;;;4993679;28;20054;-69
2022/08/30 02:02:25;;;;;;;0.57;0.57;;;17.10;99.90;;;;;;4999516;28;20185;-69
2022/08/30 02:04:52;;;;;;;0.22;0.22;;;17.10;99.90;;;;;;5003287;28;20038;-69
2022/08/30 02:07:18;;;;;;;0.45;0.45;;;17.00;99.90;;;;;;5008869;28;20082;-69
2022/08/30 02:09:44;;;;;;;0.00;0.00;;;17.10;99.90;;;;;;4996101;28;20184;-69
2022/08/30 02:12:09;;;;;;;0.20;0.20;;;17.00;99.90;;;;;;5003721;28;20537;-69
2022/08/30 02:14:36;;;;;;;0.10;0.10;;;17.00;99.90;;;;;;5007736;28;20038;-69
2022/08/30 02:17:04;;;;;;;0.10;0.10;;;17.00;99.90;;;;;;5010188;28;20057;-69
2022/08/30 02:19:30;;;;;;;0.00;0.00;;;17.00;99.90;;;;;;4991209;28;20038;-68
2022/08/30 02:21:56;;;;;;;0.05;0.05;;;17.00;99.90;;;;;;4999924;28;20475;-69
2022/08/30 02:24:21;;;;;;;0.10;0.10;;;17.00;99.90;;;;;;5000028;28;20081;-65
2022/08/30 02:26:47;;;;;;;0.10;0.10;;;16.90;99.90;;;;;;5009297;28;20042;-69
2022/08/30 02:29:13;;;;;;;0.10;0.10;;;16.90;99.90;;;;;;5010146;28;20477;-69
2022/08/30 02:31:38;;;;;;;0.10;0.10;;;16.90;99.90;;;;;;5008935;28;20037;-69
2022/08/30 02:34:04;;;;;;;0.00;0.00;;;16.80;99.90;;;;;;5010816;28;20157;-69
2022/08/30 02:36:30;;;;;;;0.00;0.00;;;16.80;99.90;;;;;;5011598;28;20046;-69
2022/08/30 02:38:55;;;;;;;0.00;0.00;;;16.80;99.90;;;;;;5012938;28;20037;-69
2022/08/30 02:41:22;;;;;;;0.00;0.00;;;16.80;99.90;;;;;;5000427;28;20045;-69
2022/08/30 02:43:48;;;;;;;0.10;0.10;;;16.80;99.90;;;;;;5003892;28;20053;-69
2022/08/30 02:46:14;;;;;;;0.10;0.10;;;16.80;99.90;;;;;;4995863;28;20402;-69
2022/08/30 02:48:40;;;;;;;0.00;0.00;;;16.80;99.90;;;;;;5002815;28;20050;-69
2022/08/30 02:51:09;;;;;;;0.00;0.00;;;16.80;99.90;;;;;;4994262;28;20047;-68
2022/08/30 02:53:35;;;;;;;0.20;0.20;;;16.70;99.90;;;;;;4997729;28;20133;-69
2022/08/30 02:56:01;;;;;;;0.10;0.10;;;16.70;99.90;;;;;;5010946;28;20056;-69
2022/08/30 02:58:26;;;;;;;0.00;0.00;;;16.70;99.90;;;;;;5010110;28;20054;-69
2022/08/30 03:00:52;;;;;;;0.03;0.03;;;16.70;99.90;;;;;;5003383;28;20054;-69
2022/08/30 03:03:18;;;;;;;0.82;0.30;;;16.60;99.90;;;;;;5007100;28;20061;-69
2022/08/30 03:05:43;;;;;;;0.10;0.10;;;16.60;99.90;;;;;;4999373;28;20089;-69
2022/08/30 03:08:09;;;;;;;0.10;0.10;;;16.60;99.90;;;;;;5006645;28;20038;-69
2022/08/30 03:10:37;;;;;;;0.00;0.00;;;16.60;99.90;;;;;;5006949;28;20046;-69
2022/08/30 03:13:06;;;;;;;0.10;0.10;;;16.60;99.90;;;;;;4993508;28;20046;-69
2022/08/30 03:15:33;;;;;;;0.10;0.10;;;16.60;99.90;;;;;;4993717;28;20048;-68
2022/08/30 03:17:58;;;;;;;0.10;0.10;;;16.60;99.90;;;;;;5006330;28;20547;-68
2022/08/30 03:20:24;;;;;;;0.63;0.63;;;16.50;99.90;;;;;;4998710;28;20041;-69
2022/08/30 03:22:50;;;;;;;0.00;0.00;;;16.50;99.90;;;;;;4992401;28;20068;-69
2022/08/30 03:25:16;;;;;;;0.08;0.08;;;16.40;99.90;;;;;;4997113;28;20394;-69
2022/08/30 03:27:41;;;;;;;0.20;0.20;;;16.40;99.90;;;;;;5011231;28;20030;-68
2022/08/30 03:30:08;;;;;;;0.10;0.10;;;16.40;99.90;;;;;;4992796;28;20409;-68
2022/08/30 03:32:34;;;;;;;0.03;0.03;;;16.40;99.90;;;;;;5010842;28;20038;-69
2022/08/30 03:34:59;;;;;;;0.13;0.13;;;16.40;99.90;;;;;;5010636;28;20077;-69
2022/08/30 03:37:26;;;;;;;0.00;0.00;;;16.30;99.90;;;;;;5005459;28;20074;-69
2022/08/30 03:39:53;;;;;;;0.10;0.10;;;16.30;99.90;;;;;;5005161;28;20456;-69
2022/08/30 03:42:18;;;;;;;0.15;0.15;;;16.30;99.90;;;;;;5011433;28;20085;-69
2022/08/30 03:44:44;;;;;;;0.00;0.00;;;16.30;99.90;;;;;;5012075;28;20081;-69
2022/08/30 03:47:10;;;;;;;0.10;0.10;;;16.20;99.90;;;;;;4997696;28;20117;-69
2022/08/30 03:49:35;;;;;;;0.00;0.00;;;16.20;99.90;;;;;;5011694;28;20053;-69
2022/08/30 03:52:02;;;;;;;0.00;0.00;;;16.10;99.90;;;;;;5009552;28;20038;-69
2022/08/30 03:54:27;;;;;;;0.17;0.17;;;16.10;99.90;;;;;;5011561;28;20050;-69
2022/08/30 03:56:53;;;;;;;0.00;0.00;;;16.10;99.90;;;;;;4997672;28;20745;-69
2022/08/30 03:59:19;;;;;;;0.10;0.10;;;16.10;99.90;;;;;;5004917;28;20062;-69
2022/08/30 04:01:46;;;;;;;0.10;0.10;;;16.10;99.90;;;;;;4995573;28;20054;-69
2022/08/30 04:04:12;;;;;;;0.20;0.20;;;16.00;99.90;;;;;;5004622;28;20057;-69
2022/08/30 04:06:38;;;;;;;3.05;0.75;;;16.00;99.90;;;;;;5001169;28;20093;-69
2022/08/30 04:09:03;;;;;;;0.13;0.13;;;16.00;99.90;;;;;;4999769;28;20050;-69
2022/08/30 04:11:29;;;;;;;0.00;0.00;;;16.00;99.90;;;;;;5009123;28;20493;-69
2022/08/30 04:13:55;;;;;;;0.20;0.20;;;16.00;99.90;;;;;;5006278;28;20363;-68
2022/08/30 04:16:22;;;;;;;0.10;0.10;;;16.00;99.90;;;;;;4992272;28;20046;-69
2022/08/30 04:18:48;;;;;;;0.00;0.00;;;16.00;99.90;;;;;;5003568;28;20053;-69
2022/08/30 04:21:14;;;;;;;0.30;0.28;;;15.90;99.90;;;;;;5000603;28;20906;-68
2022/08/30 04:23:41;;;;;;;0.20;0.20;;;15.90;99.90;;;;;;4992890;28;20043;-69
2022/08/30 04:26:06;;;;;;;0.30;0.30;;;15.90;99.90;;;;;;5001805;28;20085;-69
2022/08/30 04:28:34;;;;;;;0.05;0.05;;;15.90;99.90;;;;;;5008032;28;20497;-68
2022/08/30 04:31:02;;;;;;;0.10;0.10;;;15.90;99.90;;;;;;5004037;28;20468;-69
2022/08/30 04:33:27;;;;;;;0.10;0.10;;;15.80;99.90;;;;;;5001222;28;20482;-69
2022/08/30 04:35:53;;;;;;;0.65;0.45;;;15.80;99.90;;;;;;5006234;28;20232;-69
2022/08/30 04:38:18;;;;;;;0.00;0.00;;;15.80;99.90;;;;;;4995830;28;20046;-69
2022/08/30 04:40:49;;;;;;;0.10;0.10;;;15.80;99.90;;;;;;5008408;28;20046;-69
2022/08/30 04:43:15;;;;;;;0.55;0.52;;;15.80;99.90;;;;;;5010771;28;20104;-69
2022/08/30 04:45:41;;;;;;;0.08;0.08;;;15.80;99.90;;;;;;4995701;28;20042;-69
2022/08/30 04:48:07;;;;;;;0.45;0.45;;;15.80;99.90;;;;;;4996738;28;20124;-69
2022/08/30 04:50:33;;;;;;;0.08;0.08;;;15.70;99.90;;;;;;5009798;28;20097;-69
2022/08/30 04:52:58;;;;;;;0.05;0.05;;;15.70;99.90;;;;;;5004498;28;20526;-69
2022/08/30 04:55:25;;;;;;;0.00;0.00;;;15.70;99.90;;;;;;4997896;28;20034;-69
2022/08/30 04:57:51;;;;;;;0.25;0.25;;;15.70;99.90;;;;;;5010301;28;20057;-69
2022/08/30 05:00:19;;;;;;;0.10;0.10;;;15.70;99.90;;;;;;5003492;28;20062;-69
2022/08/30 05:02:45;;;;;;;0.10;0.10;;;15.70;99.90;;;;;;5008415;28;20513;-69
2022/08/30 05:07:55;;;;;;;0.20;0.20;;;15.70;99.90;;;;;;5005636;28;20057;-69
2022/08/30 05:10:21;;;;;;;0.17;0.17;;;15.70;99.90;;;;;;5007067;28;20041;-69
2022/08/30 05:12:46;;;;;;;0.00;0.00;;;15.60;99.90;;;;;;5009199;28;20073;-69
2022/08/30 05:15:12;;;;;;;0.10;0.10;;;15.60;99.90;;;;;;5001115;28;20485;-69
2022/08/30 05:17:39;;;;;;;0.10;0.10;;;15.60;99.90;;;;;;5008339;28;20449;-68
2022/08/30 05:20:09;;;;;;;0.20;0.20;;;15.70;99.90;;;;;;5007019;28;20129;-69
2022/08/30 05:22:40;;;;;;;0.15;0.15;;;15.70;99.90;;;;;;4998473;28;20370;-69
2022/08/30 05:25:06;;;;;;;0.22;0.22;;;15.70;99.90;;;;;;5005651;28;20117;-69
2022/08/30 05:27:33;;;;;;;0.00;0.00;;;15.70;99.90;;;;;;5000471;28;20449;-69
2022/08/30 05:29:58;;;;;;;0.10;0.10;;;15.70;99.90;;;;;;4993107;28;20057;-69
2022/08/30 05:32:24;;;;;;;0.08;0.08;;;15.70;99.90;;;;;;5003503;28;20060;-69
2022/08/30 05:34:50;;;;;;;0.10;0.10;;;15.70;99.90;;;;;;5009116;28;20140;-69
2022/08/30 05:37:15;;;;;;;0.10;0.10;;;15.70;99.90;;;;;;4999984;28;20074;-69
2022/08/30 05:39:41;;;;;;;0.10;0.10;;;15.70;99.90;;;;;;5007270;28;20042;-69
2022/08/30 05:42:07;;;;;;;0.10;0.10;;;15.80;99.90;;;;;;5007414;28;20052;-69
2022/08/30 05:44:33;;;;;;;0.98;0.90;;;15.80;99.90;;;;;;5009141;28;20046;-69
2022/08/30 05:46:59;;;;;;;0.10;0.10;;;15.90;99.90;;;;;;4993812;28;20046;-69
2022/08/30 05:49:25;;;;;;;0.10;0.10;;;15.90;99.90;;;;;;4999481;28;20053;-69
2022/08/30 05:51:50;;;;;;;0.03;0.03;;;16.00;99.90;;;;;;5006595;28;20073;-69
2022/08/30 05:54:16;;;;;;;0.15;0.15;;;15.90;99.90;;;;;;5009393;28;20034;-69
2022/08/30 05:56:44;;;;;;;0.10;0.10;;;16.00;99.90;;;;;;4996952;28;20390;-69
2022/08/30 05:59:10;;;;;;;0.00;0.00;;;16.00;99.90;;;;;;4992650;28;20511;-69
2022/08/30 06:01:41;;;;;;;0.47;0.47;;;16.00;99.90;;;;;;5006205;28;20042;-69
2022/08/30 06:04:08;;;;;;;0.00;0.00;;;16.10;99.90;;;;;;5003910;28;20498;-70
2022/08/30 06:06:36;;;;;;;0.20;0.20;;;16.10;99.90;;;;;;4998829;28;20139;-69
2022/08/30 06:09:04;;;;;;;0.10;0.10;;;16.10;99.90;;;;;;4999705;28;20054;-70
2022/08/30 06:11:30;;;;;;;0.00;0.00;;;16.20;99.90;;;;;;4990935;28;20054;-69
2022/08/30 06:13:55;;;;;;;0.00;0.00;;;16.20;99.90;;;;;;4990034;28;20141;-69
2022/08/30 06:16:24;;;;;;;0.38;0.38;;;16.30;99.90;;;;;;4990417;28;20081;-69
2022/08/30 06:18:51;;;;;;;0.10;0.10;;;16.30;99.90;;;;;;4990028;28;20140;-69
2022/08/30 06:21:23;;;;;;;0.20;0.20;;;16.30;99.90;;;;;;4996736;28;20045;-69
2022/08/30 06:23:49;;;;;;;1.20;0.50;;;16.40;99.90;;;;;;5010164;28;20401;-69
2022/08/30 06:26:15;;;;;;;0.08;0.08;;;16.30;99.90;;;;;;5007455;28;20053;-72
2022/08/30 06:28:41;;;;;;;0.10;0.10;;;16.40;99.90;;;;;;5000957;28;20102;-69
2022/08/30 06:31:11;;;;;;;0.08;0.08;;;16.40;99.90;;;;;;4990952;28;20130;-70
2022/08/30 06:33:37;;;;;;;0.00;0.00;;;16.50;99.90;;;;;;5009491;28;20405;-70
2022/08/30 06:36:09;;;;;;;0.10;0.10;;;16.60;99.90;;;;;;4993130;28;20050;-70
2022/08/30 06:38:36;;;;;;;0.10;0.10;;;16.60;99.90;;;;;;5001312;28;20597;-70
2022/08/30 06:41:10;;;;;;;0.10;0.10;;;16.70;99.90;;;;;;4999486;28;20050;-70
2022/08/30 06:43:36;;;;;;;0.00;0.00;;;16.70;99.90;;;;;;5005066;28;20057;-70
2022/08/30 06:46:11;;;;;;;0.17;0.17;;;16.70;99.90;;;;;;5003841;28;20045;-70
2022/08/30 06:48:36;;;;;;;0.10;0.10;;;16.80;99.90;;;;;;5005057;28;20042;-70
2022/08/30 06:51:03;;;;;;;0.00;0.00;;;16.90;99.90;;;;;;5005966;28;20104;-70
2022/08/30 06:53:29;;;;;;;0.40;0.40;;;16.90;99.90;;;;;;5005471;28;20057;-70
2022/08/30 06:56:06;;;;;;;0.10;0.10;;;17.00;99.90;;;;;;5002547;28;20093;-70
2022/08/30 06:58:33;;;;;;;0.10;0.10;;;17.00;99.90;;;;;;5007707;28;20050;-70
2022/08/30 07:00:58;;;;;;;0.10;0.10;;;17.10;99.90;;;;;;5007438;28;20060;-70
2022/08/30 07:03:26;;;;;;;0.10;0.10;;;17.10;99.90;;;;;;5004260;28;20042;-70
2022/08/30 07:05:52;;;;;;;0.00;0.00;;;17.20;99.90;;;;;;5003241;28;20046;-70
2022/08/30 07:08:18;;;;;;;0.03;0.03;;;17.20;99.90;;;;;;5023563;28;20057;-70
2022/08/30 07:10:44;;;;;;;0.05;0.05;;;17.30;99.90;;;;;;5010825;28;20038;-70
2022/08/30 07:13:10;;;;;;;0.10;0.10;;;17.30;99.90;;;;;;5005450;28;20445;-69
2022/08/30 07:15:43;;;;;;;0.20;0.20;;;17.40;99.90;;;;;;4995005;28;20372;-69
2022/08/30 07:20:55;;;;;;;0.00;0.00;;;17.40;99.90;;;;;;4992446;28;20466;-69
2022/08/30 07:23:20;;;;;;;0.93;0.25;;;17.60;99.90;;;;;;4998042;28;20057;-69
2022/08/30 07:25:46;;;;;;;0.10;0.10;;;17.50;99.90;;;;;;5006464;28;20034;-69
2022/08/30 07:28:12;;;;;;;0.00;0.00;;;17.60;99.90;;;;;;4992893;28;20034;-69
2022/08/30 07:30:39;;;;;;;0.17;0.17;;;17.60;99.90;;;;;;4992554;28;20053;-69
2022/08/30 07:33:05;;;;;;;0.00;0.00;;;17.70;99.90;;;;;;5005378;28;20065;-69
2022/08/30 07:35:31;;;;;;;0.10;0.10;;;17.70;99.90;;;;;;4997535;28;20398;-69
2022/08/30 07:37:57;;;;;;;0.10;0.10;;;17.80;99.90;;;;;;5007342;28;20482;-70
2022/08/30 07:40:23;;;;;;;0.10;0.10;;;17.80;99.90;;;;;;5007858;28;20049;-70
2022/08/30 07:42:49;;;;;;;0.00;0.00;;;17.90;99.90;;;;;;5010748;28;20045;-70
2022/08/30 07:45:15;;;;;;;0.10;0.10;;;17.90;99.90;;;;;;5002136;28;20057;-69
2022/08/30 07:47:40;;;;;;;0.00;0.00;;;18.00;99.90;;;;;;4998039;28;20498;-69
2022/08/30 07:50:07;;;;;;;0.03;0.03;;;18.00;99.90;;;;;;5000124;28;20398;-69
2022/08/30 07:52:33;;;;;;;0.00;0.00;;;18.10;99.90;;;;;;5005782;28;20034;-67
2022/08/30 07:54:59;;;;;;;0.10;0.10;;;18.10;99.90;;;;;;5007002;28;20033;-68
2022/08/30 07:57:25;;;;;;;0.10;0.10;;;18.10;99.90;;;;;;5009214;28;20044;-69
2022/08/30 07:59:51;;;;;;;0.10;0.10;;;18.20;99.90;;;;;;5001893;28;20045;-69
2022/08/30 08:02:18;;;;;;;0.10;0.10;;;18.30;99.90;;;;;;5008974;28;20056;-70
2022/08/30 08:04:44;;;;;;;0.10;0.10;;;18.30;99.90;;;;;;5007221;28;20062;-70
2022/08/30 08:07:10;;;;;;;0.65;0.65;;;18.40;99.90;;;;;;5007842;28;20112;-70
2022/08/30 08:09:37;;;;;;;0.15;0.15;;;18.40;99.90;;;;;;4996393;28;20072;-69
2022/08/30 08:12:05;;;;;;;0.32;0.32;;;18.50;99.90;;;;;;5000435;28;20089;-69
2022/08/30 08:14:31;;;;;;;0.00;0.00;;;18.50;99.90;;;;;;4997610;28;20045;-69
2022/08/30 08:16:57;;;;;;;0.30;0.30;;;18.50;99.90;;;;;;5000598;28;20089;-69
2022/08/30 08:19:23;;;;;;;0.10;0.10;;;18.60;99.90;;;;;;4991372;28;20084;-69
2022/08/30 08:21:48;;;;;;;0.00;0.00;;;18.70;99.90;;;;;;4992393;28;20453;-69
2022/08/30 08:24:15;;;;;;;0.80;0.47;;;18.70;99.90;;;;;;4997906;28;20046;-69
2022/08/30 08:26:41;;;;;;;0.10;0.10;;;18.70;99.90;;;;;;4997291;28;20108;-69
2022/08/30 08:29:08;;;;;;;0.10;0.10;;;18.80;99.90;;;;;;4997774;28;20046;-69
2022/08/30 08:31:34;;;;;;;0.17;0.17;;;18.80;99.90;;;;;;5006584;28;20038;-69
2022/08/30 08:34:03;;;;;;;0.00;0.00;;;18.90;99.90;;;;;;5009512;28;20497;-70
2022/08/30 08:36:30;;;;;;;0.00;0.00;;;18.90;99.90;;;;;;5004612;28;20034;-70
2022/08/30 08:38:55;;;;;;;0.00;0.00;;;19.00;99.90;;;;;;5002164;28;20100;-70
2022/08/30 08:41:40;;;;;;;0.00;0.00;;;19.00;99.90;;;;;;4998226;28;20042;-70
2022/08/30 08:44:22;;;;;;;0.55;0.40;;;19.10;99.90;;;;;;4990301;28;20054;-70
2022/08/30 08:46:47;;;;;;;1.33;0.65;;;19.20;99.90;;;;;;4995551;28;20496;-70
2022/08/30 08:49:13;;;;;;;0.20;0.20;;;19.30;99.90;;;;;;4998603;28;20042;-70
2022/08/30 08:54:32;;;;;;;0.00;0.00;;;19.50;99.90;;;;;;4991481;28;20482;-70
2022/08/30 08:56:59;;;;;;;0.30;0.30;;;19.70;99.90;;;;;;5001260;28;20041;-70
2022/08/30 08:59:25;;;;;;;0.10;0.10;;;19.70;99.90;;;;;;5007171;28;20065;-70
2022/08/30 09:01:50;;;;;;;0.10;0.10;;;19.90;99.90;;;;;;5008959;28;20041;-70
2022/08/30 09:04:30;;;;;;;0.10;0.10;;;20.10;99.90;;;;;;5011350;28;20096;-70
2022/08/30 09:07:00;;;;;;;0.10;0.10;;;20.50;99.90;;;;;;4991994;28;20073;-69
2022/08/30 09:09:30;;;;;;;0.20;0.20;;;21.20;99.90;;;;;;4996337;28;20044;-70
2022/08/30 09:11:55;;;;;;;0.10;0.10;;;22.00;99.90;;;;;;4990747;28;20046;-70
2022/08/30 09:14:24;;;;;;;0.10;0.10;;;22.80;99.90;;;;;;4990398;28;20108;-70
2022/08/30 09:16:57;;;;;;;0.20;0.20;;;22.70;99.90;;;;;;4994471;28;20525;-69
2022/08/30 09:19:50;;;;;;;0.30;0.30;;;22.80;99.90;;;;;;4997459;28;20038;-70
2022/08/30 09:22:32;;;;;;;0.00;0.00;;;22.70;99.90;;;;;;5004740;28;20092;-70
2022/08/30 09:25:06;;;;;;;0.03;0.03;;;23.20;99.90;;;;;;4998445;28;20410;-69
2022/08/30 09:27:37;;;;;;;0.00;0.00;;;23.70;99.90;;;;;;5004266;28;20092;-69
2022/08/30 09:30:17;;;;;;;0.00;0.00;;;24.00;99.90;;;;;;5008623;28;20045;-69
2022/08/30 09:32:53;;;;;;;0.30;0.30;;;24.10;99.90;;;;;;5007155;28;20129;-69
2022/08/30 09:35:22;;;;;;;0.00;0.00;;;23.70;99.90;;;;;;5008708;28;20042;-70
2022/08/30 09:37:53;;;;;;;0.00;0.00;;;23.50;99.90;;;;;;5009998;28;20054;-70
2022/08/30 09:40:37;;;;;;;0.00;0.00;;;23.50;99.90;;;;;;4997002;28;20556;-70
2022/08/30 09:43:16;;;;;;;0.00;0.00;;;23.70;99.90;;;;;;4997623;28;20049;-70
2022/08/30 09:45:46;;;;;;;0.00;0.00;;;24.20;99.90;;;;;;5001794;28;20061;-70
2022/08/30 09:48:32;;;;;;;0.00;0.00;;;23.90;99.70;;;;;;5001400;28;20049;-70
2022/08/30 09:51:10;;;;;;;0.00;0.00;;;23.60;99.60;;;;;;5008699;28;20054;-71
2022/08/30 09:54:10;;;;;;;0.38;0.38;;;23.20;99.90;;;;;;4995713;28;20104;-70
2022/08/30 09:56:53;;;;;;;0.08;0.08;;;23.60;99.90;;;;;;4990002;28;20050;-70
2022/08/30 09:59:48;;;;;;;0.00;0.00;;;24.10;99.20;;;;;;4990588;28;20136;-70
2022/08/30 10:02:38;;;;;;;0.00;0.00;;;24.30;99.20;;;;;;4989283;28;20046;-69
2022/08/30 10:05:28;;;;;;;0.20;0.20;;;24.70;98.70;;;;;;5002076;28;20057;-70
2022/08/30 10:08:07;;;;;;;0.20;0.20;;;25.00;98.20;;;;;;4991509;28;20089;-70
2022/08/30 10:10:36;;;;;;;0.00;0.00;;;24.50;98.00;;;;;;4999352;28;20038;-69
2022/08/30 10:13:22;;;;;;;0.80;0.28;;;24.70;98.70;;;;;;5005029;28;20046;-70
2022/08/30 10:16:03;;;;;;;0.22;0.10;;;24.70;98.20;;;;;;5001316;28;20054;-69
2022/08/30 10:19:01;;;;;;;0.10;0.10;;;24.50;98.10;;;;;;5008646;28;20049;-70
2022/08/30 10:21:37;;;;;;;0.00;0.00;;;24.70;98.30;;;;;;4995487;28;20062;-69
2022/08/30 10:24:12;;;;;;;0.57;0.57;;;24.50;97.50;;;;;;5002476;28;20397;-70
2022/08/30 10:26:53;;;;;;;0.00;0.00;;;24.40;97.00;;;;;;4997034;28;20060;-69
2022/08/30 10:29:24;;;;;;;0.00;0.00;;;24.50;97.80;;;;;;4988753;28;20050;-69
2022/08/30 10:32:27;;;;;;;0.00;0.00;;;24.50;97.30;;;;;;5007168;28;20125;-70
2022/08/30 10:35:04;;;;;;;0.00;0.00;;;24.70;97.50;;;;;;4996629;28;20046;-69
2022/08/30 10:37:35;;;;;;;0.13;0.13;;;24.50;96.90;;;;;;4988765;28;20042;-69
2022/08/30 10:43:04;;;;;;;0.00;0.00;;;24.20;97.70;;;;;;5010949;28;20058;-70
2022/08/30 10:45:34;;;;;;;0.10;0.10;;;24.10;98.40;;;;;;5004385;28;20069;-69
2022/08/30 10:48:23;;;;;;;0.10;0.10;;;24.20;97.00;;;;;;4998377;28;20042;-70
2022/08/30 10:50:53;;;;;;;0.10;0.10;;;24.30;97.40;;;;;;5003743;28;20038;-70
2022/08/30 10:53:28;;;;;;;0.00;0.00;;;24.00;97.40;;;;;;5001778;28;20042;-70
2022/08/30 10:56:09;;;;;;;0.00;0.00;;;24.20;96.70;;;;;;5006718;28;20078;-69
2022/08/30 10:58:38;;;;;;;0.00;0.00;;;24.40;96.50;;;;;;4993343;28;20504;-70
2022/08/30 11:01:18;;;;;;;0.00;0.00;;;24.60;97.80;;;;;;5002408;28;20057;-69
2022/08/30 11:03:58;;;;;;;0.13;0.13;;;24.60;96.00;;;;;;5013300;28;20053;-70
2022/08/30 11:06:51;;;;;;;0.00;0.00;;;24.70;96.90;;;;;;5011278;28;20104;-70
2022/08/30 11:09:30;;;;;;;0.10;0.10;;;24.80;96.50;;;;;;4992585;28;20502;-70
2022/08/30 11:12:19;;;;;;;0.20;0.20;;;25.00;96.30;;;;;;5009256;28;20145;-70
2022/08/30 11:14:45;;;;;;;0.00;0.00;;;24.80;95.30;;;;;;5000869;28;20085;-70
2022/08/30 11:17:30;;;;;;;0.00;0.00;;;25.10;96.50;;;;;;4993032;28;20454;-70
2022/08/30 11:19:59;;;;;;;0.10;0.10;;;24.80;95.30;;;;;;4996376;28;20037;-71
2022/08/30 11:22:32;;;;;;;0.00;0.00;;;25.00;96.20;;;;;;4992753;28;20046;-70
2022/08/30 11:25:06;;;;;;;2.40;0.55;;;25.30;95.90;;;;;;5003383;28;20141;-70
2022/08/30 11:27:41;;;;;;;1.35;0.22;;;25.20;94.90;;;;;;5010478;28;20132;-70
2022/08/30 11:30:25;;;;;;;0.00;0.00;;;25.30;95.10;;;;;;4995327;28;20046;-70
2022/08/30 11:33:08;;;;;;;0.15;0.15;;;25.50;95.00;;;;;;5006350;28;20096;-70
2022/08/30 11:35:51;;;;;;;0.00;0.00;;;25.50;94.60;;;;;;4992983;28;20426;-70
2022/08/30 11:38:39;;;;;;;0.10;0.10;;;25.90;94.90;;;;;;5000483;28;20588;-70
2022/08/30 11:41:27;;;;;;;0.00;0.00;;;25.80;93.00;;;;;;5012306;28;20513;-70
2022/08/30 11:43:54;;;;;;;0.00;0.00;;;25.80;93.00;;;;;;4999428;28;20057;-70
2022/08/30 11:46:36;;;;;;;0.00;0.00;;;25.80;94.40;;;;;;4996351;28;20417;-70
2022/08/30 11:49:13;;;;;;;0.10;0.10;;;26.00;93.10;;;;;;4991110;28;20061;-70
2022/08/30 11:51:51;;;;;;;0.00;0.00;;;26.00;92.90;;;;;;4991660;28;20046;-70
2022/08/30 11:54:35;;;;;;;0.00;0.00;;;26.00;93.00;;;;;;4991671;28;20082;-70
2022/08/30 11:57:16;;;;;;;9.23;0.95;;;26.20;93.80;;;;;;5005294;28;20046;-71
2022/08/30 12:00:05;;;;;;;0.30;0.30;;;26.50;94.40;;;;;;5011749;28;20054;-70
2022/08/30 12:02:59;;;;;;;0.00;0.00;;;26.50;94.20;;;;;;4997952;28;20066;-70
2022/08/30 12:05:45;;;;;;;0.00;0.00;;;26.40;92.70;;;;;;5008258;28;20050;-70
2022/08/30 12:08:22;;;;;;;0.00;0.00;;;26.30;92.30;;;;;;4993409;28;20498;-70
2022/08/30 12:11:01;;;;;;;0.08;0.08;;;26.60;92.10;;;;;;4998512;28;20065;-70
2022/08/30 12:13:35;;;;;;;0.15;0.15;;;26.70;92.30;;;;;;5011710;28;20535;-70
2022/08/30 12:16:23;;;;;;;0.00;0.00;;;26.90;93.00;;;;;;5001981;28;20510;-70
2022/08/30 12:19:18;;;;;;;0.35;0.35;;;27.10;92.10;;;;;;4992936;28;20053;-70
2022/08/30 12:21:57;;;;;;;0.05;0.05;;;27.40;92.10;;;;;;5009193;28;20103;-70
2022/08/30 12:24:35;;;;;;;0.00;0.00;;;27.10;92.90;;;;;;5003709;28;20589;-70
2022/08/30 12:27:21;;;;;;;0.00;0.00;;;27.10;93.00;;;;;;5003213;28;20042;-70
2022/08/30 12:29:51;;;;;;;0.00;0.00;;;27.20;92.50;;;;;;5009366;28;20109;-70
2022/08/30 12:32:19;;;;;;;4.65;0.22;;;27.40;92.50;;;;;;5008207;28;20092;-70
2022/08/30 12:34:44;;;;;;;0.00;0.00;;;27.20;92.40;;;;;;5009085;28;20133;-70
2022/08/30 12:37:28;;;;;;;0.00;0.00;;;27.40;91.70;;;;;;4995775;28;20133;-70
2022/08/30 12:40:21;;;;;;;0.32;0.20;;;27.50;91.90;;;;;;5004758;28;20128;-70
2022/08/30 12:42:55;;;;;;;0.00;0.00;;;27.50;91.80;;;;;;4996913;28;20050;-71
2022/08/30 12:45:25;;;;;;;0.00;0.00;;;27.70;92.60;;;;;;4990792;28;20042;-70
2022/08/30 12:48:02;;;;;;;0.10;0.10;;;27.60;92.40;;;;;;4992078;28;20042;-70
2022/08/30 12:50:36;;;;;;;0.00;0.00;;;27.60;91.80;;;;;;5006081;28;20104;-70
2022/08/30 12:53:10;;;;;;;0.00;0.00;;;28.00;92.60;;;;;;4988890;28;20053;-70
2022/08/30 12:55:55;;;;;;;0.05;0.05;;;28.00;92.40;;;;;;4991624;28;20133;-70
2022/08/30 12:58:42;;;;;;;0.00;0.00;;;28.20;92.20;;;;;;4991564;28;20042;-69
2022/08/30 13:01:28;;;;;;;0.00;0.00;;;28.20;92.30;;;;;;4990410;28;20128;-70
2022/08/30 13:03:56;;;;;;;0.00;0.00;;;28.10;92.10;;;;;;5002729;28;20056;-71
2022/08/30 13:06:47;;;;;;;0.20;0.10;;;27.90;92.00;;;;;;5003501;28;20044;-70
2022/08/30 13:09:23;;;;;;;0.00;0.00;;;28.10;91.90;;;;;;4999965;28;20061;-70
2022/08/30 13:11:49;;;;;;;0.00;0.00;;;27.90;91.60;;;;;;5005863;28;20042;-71
2022/08/30 13:14:55;;;;;;;0.00;0.00;;;28.20;92.20;;;;;;5008560;28;20056;-71
2022/08/30 13:17:24;;;;;;;0.00;0.00;;;28.20;91.90;;;;;;4986098;28;20514;-71